This is the latest recevied weather packets stored in our database for station/object DL6DJ-15. If no packets are shown the sender has not sent any weather packets the latest 10 day(s).
| Time | Temp. | Humidity | Pressure | Rain* | Wind** | Luminosity | Snow |
|---|---|---|---|---|---|---|---|
| 1777258429 | 1.11° C | 68% | 1023.3 hPa | - | - | - | - |
| 1777257528 | 1.11° C | 68% | 1023.3 hPa | - | - | - | - |
| 1777256927 | 1.11° C | 68% | 1023.3 hPa | - | - | - | - |
| 1777256627 | 1.11° C | 67% | 1023.3 hPa | - | - | - | - |
| 1777256326 | 1.11° C | 68% | 1023.3 hPa | - | - | - | - |
| 1777256026 | 1.11° C | 67% | 1023.4 hPa | - | - | - | - |
| 1777255125 | 1.67° C | 67% | 1023.4 hPa | - | - | - | - |
| 1777254524 | 1.67° C | 66% | 1023.4 hPa | - | - | - | - |
| 1777234699 | 6.67° C | 52% | 1023.5 hPa | - | - | - | - |
| 1777231695 | 7.78° C | 51% | 1023.4 hPa | - | - | - | - |
| 1777228391 | 10° C | 45% | 1022.7 hPa | - | - | - | - |
| 1777225084 | 15° C | 27% | 1022.4 hPa | - | - | - | - |
| 1777220878 | 16.67° C | 28% | 1022.7 hPa | - | - | - | - |
| 1777220277 | 16.67° C | 27% | 1022.7 hPa | - | - | - | - |
| 1777219376 | 16.67° C | 29% | 1022.7 hPa | - | - | - | - |
| 1777219076 | 16.67° C | 29% | 1022.7 hPa | - | - | - | - |
| 1777218775 | 16.67° C | 29% | 1022.8 hPa | - | - | - | - |
| 1777218475 | 16.67° C | 29% | 1022.8 hPa | - | - | - | - |
| 1777217874 | 16.67° C | 27% | 1022.7 hPa | - | - | - | - |
| 1777217573 | 17.22° C | 26% | 1022.8 hPa | - | - | - | - |
| 1777217273 | 17.22° C | 26% | 1022.7 hPa | - | - | - | - |
| 1777216672 | 17.78° C | 27% | 1022.6 hPa | - | - | - | - |
| 1777216372 | 17.78° C | 26% | 1022.7 hPa | - | - | - | - |
| 1777215173 | 17.78° C | 27% | 1022.8 hPa | - | - | - | - |
| 1777213068 | 18.89° C | 24% | 1022.8 hPa | - | - | - | - |
* Rain since midnight (hover to see other rain measurements)
** Current wind speed in m/s (hover to see current wind gust speed)